Terminal Aerodrome Forecast
Issued by NWS

Home | Current Version | Previous Version | Text Only | Print | Product List | Glossary Off
Versions: 1 2 3 4 5 6 7 8 9 10 11 12 13 14 15 16 17 18 19

188
FTUS43 KMPX 240857 AAA
TAFRWF
TAF AMD
KRWF 240857Z 2409/2506 19003KT 1 1/2SM BR SCT006
      TEMPO 2409/2413 1/2SM FG VV003
     FM241330 18005KT P6SM SCT150
     FM250000 14005KT P6SM SCT250=

USA.gov is the U.S. government's official web portal to all federal, state and local government web resources and services.